createdAt,value
2016-10-18T00:00:33.534Z,0
2016-10-18T00:01:33.187Z,0
2016-10-18T00:02:33.151Z,0
2016-10-18T00:03:33.124Z,0
2016-10-18T00:04:33.084Z,0
2016-10-18T00:05:32.744Z,0
2016-10-18T00:06:33.343Z,0
2016-10-18T00:07:33.277Z,0
2016-10-18T00:08:32.949Z,0
2016-10-18T00:09:32.602Z,0
2016-10-18T00:10:32.913Z,0
2016-10-18T00:11:33.176Z,0
2016-10-18T00:12:33.112Z,0
2016-10-18T00:13:33.068Z,0
2016-10-18T00:14:33.032Z,0
2016-10-18T00:15:32.691Z,0
2016-10-18T00:16:32.699Z,0
2016-10-18T00:17:32.323Z,0
2016-10-18T00:18:32.276Z,0
2016-10-18T00:19:32.851Z,0
2016-10-18T00:20:32.518Z,0
2016-10-18T00:21:32.784Z,0
2016-10-18T00:22:32.473Z,0
2016-10-18T00:23:32.715Z,0
2016-10-18T00:24:32.670Z,0
2016-10-18T00:25:32.373Z,0
2016-10-18T00:26:32.306Z,0
2016-10-18T00:27:31.957Z,0
2016-10-18T00:28:32.563Z,0
2016-10-18T00:29:32.189Z,0
2016-10-18T00:30:32.160Z,0
2016-10-18T00:31:31.826Z,0
2016-10-18T00:32:32.383Z,0
2016-10-18T00:33:32.051Z,0
2016-10-18T00:34:32.314Z,0
2016-10-18T00:35:31.676Z,0
2016-10-18T00:36:31.941Z,0
2016-10-18T00:37:32.207Z,0
2016-10-18T00:38:32.171Z,0
2016-10-18T00:39:31.537Z,0
2016-10-18T00:40:32.101Z,0
2016-10-18T00:41:31.501Z,0
2016-10-18T00:42:31.763Z,0
2016-10-18T00:43:31.694Z,0
2016-10-18T00:44:31.656Z,0
2016-10-18T00:45:31.921Z,0
2016-10-18T00:46:31.587Z,0
2016-10-18T00:47:31.853Z,0
2016-10-18T00:48:31.815Z,0
2016-10-18T00:49:31.818Z,0
2016-10-18T00:50:31.434Z,0
2016-10-18T00:51:31.706Z,0
2016-10-18T00:52:31.073Z,0
2016-10-18T00:53:31.334Z,0
2016-10-18T00:54:31.302Z,0
2016-10-18T00:55:31.300Z,0
2016-10-18T00:56:30.924Z,0
2016-10-18T00:57:30.892Z,0
2016-10-18T00:58:31.199Z,0
2016-10-18T00:59:30.827Z,0
2016-10-18T01:00:31.101Z,0
2016-10-18T01:01:31.055Z,0
2016-10-18T01:02:31.012Z,0
2016-10-18T01:03:31.279Z,0
2016-10-18T01:04:30.990Z,0
2016-10-18T01:05:30.904Z,0
2016-10-18T01:06:30.569Z,0
2016-10-18T01:07:31.142Z,0
2016-10-18T01:08:30.804Z,0
2016-10-18T01:09:30.459Z,0
2016-10-18T01:10:30.432Z,0
2016-10-18T01:11:30.691Z,0
2016-10-18T01:12:30.957Z,0
2016-10-18T01:13:30.625Z,0
2016-10-18T01:14:30.888Z,0
2016-10-18T01:15:30.243Z,0
2016-10-18T01:16:30.831Z,0
2016-10-18T01:17:30.779Z,0
2016-10-18T01:18:30.746Z,0
2016-10-18T01:19:30.407Z,0
2016-10-18T01:20:30.384Z,0
2016-10-18T01:21:30.339Z,0
2016-10-18T01:22:30.598Z,0
2016-10-18T01:23:30.265Z,0
2016-10-18T01:24:30.263Z,0
2016-10-18T01:25:30.498Z,0
2016-10-18T01:26:30.159Z,0
2016-10-18T01:27:29.819Z,0
2016-10-18T01:28:30.091Z,0
2016-10-18T01:29:30.052Z,0
2016-10-18T01:30:30.310Z,0
2016-10-18T01:31:30.275Z,0
2016-10-18T01:32:29.977Z,0
2016-10-18T01:33:29.907Z,0
2016-10-18T01:34:29.571Z,0
2016-10-18T01:35:30.139Z,0
2016-10-18T01:36:29.493Z,0
2016-10-18T01:37:30.063Z,0
2016-10-18T01:38:29.730Z,0
2016-10-18T01:39:29.386Z,0
2016-10-18T01:40:29.949Z,0
2016-10-18T01:41:29.626Z,0
2016-10-18T01:42:29.878Z,0
2016-10-18T01:43:29.542Z,0
2016-10-18T01:44:29.525Z,0
2016-10-18T01:45:29.779Z,0
2016-10-18T01:46:29.444Z,0
2016-10-18T01:47:29.751Z,0
2016-10-18T01:48:29.668Z,0
2016-10-18T01:49:29.339Z,0
2016-10-18T01:50:29.301Z,0
2016-10-18T01:51:29.562Z,0
2016-10-18T01:52:29.525Z,0
2016-10-18T01:53:29.494Z,0
2016-10-18T01:54:29.147Z,0
2016-10-18T01:55:29.415Z,0
2016-10-18T01:56:28.779Z,0
2016-10-18T01:57:28.439Z,0
2016-10-18T01:58:29.305Z,0
2016-10-18T01:59:28.973Z,0
2016-10-18T02:00:29.240Z,0
2016-10-18T02:01:29.211Z,0
2016-10-18T02:02:28.571Z,0
2016-10-18T02:03:29.167Z,0
2016-10-18T02:04:29.094Z,0
2016-10-18T02:05:28.770Z,0
2016-10-18T02:06:29.016Z,0
2016-10-18T02:07:28.413Z,0
2016-10-18T02:08:28.951Z,0
2016-10-18T02:09:28.616Z,0
2016-10-18T02:10:28.572Z,0
2016-10-18T02:11:28.840Z,0
2016-10-18T02:12:28.807Z,0
2016-10-18T02:13:28.802Z,0
2016-10-18T02:14:28.726Z,0
2016-10-18T02:15:28.392Z,0
2016-10-18T02:16:28.357Z,0
2016-10-18T02:17:28.664Z,0
2016-10-18T02:18:28.628Z,0
2016-10-18T02:19:28.554Z,0
2016-10-18T02:20:27.919Z,0
2016-10-18T02:21:27.887Z,0
2016-10-18T02:22:28.453Z,0
2016-10-18T02:23:27.799Z,0
2016-10-18T02:24:28.377Z,0
2016-10-18T02:25:28.032Z,0
2016-10-18T02:26:27.998Z,0
2016-10-18T02:27:28.276Z,0
2016-10-18T02:28:27.628Z,0
2016-10-18T02:29:28.187Z,0
2016-10-18T02:30:28.162Z,0
2016-10-18T02:31:28.119Z,0
2016-10-18T02:32:28.087Z,0
2016-10-18T02:33:28.047Z,0
2016-10-18T02:34:28.012Z,0
2016-10-18T02:35:27.675Z,0
2016-10-18T02:36:27.636Z,0
2016-10-18T02:37:27.906Z,0
2016-10-18T02:38:27.866Z,0
2016-10-18T02:39:27.860Z,0
2016-10-18T02:40:27.496Z,0
2016-10-18T02:41:27.761Z,0
2016-10-18T02:42:27.724Z,0
2016-10-18T02:43:27.390Z,0
2016-10-18T02:44:27.050Z,0
2016-10-18T02:45:27.309Z,0
2016-10-18T02:46:27.583Z,0
2016-10-18T02:47:27.249Z,0
2016-10-18T02:48:27.515Z,0
2016-10-18T02:49:27.170Z,0
2016-10-18T02:50:27.141Z,0
2016-10-18T02:51:27.094Z,0
2016-10-18T02:52:27.369Z,0
2016-10-18T02:53:27.327Z,0
2016-10-18T02:54:26.999Z,0
2016-10-18T02:55:27.002Z,0
2016-10-18T02:56:26.922Z,0
2016-10-18T02:57:27.180Z,0
2016-10-18T02:58:27.144Z,0
2016-10-18T02:59:26.807Z,0
2016-10-18T03:00:27.093Z,0
2016-10-18T03:01:26.735Z,0
2016-10-18T03:02:27.039Z,0
2016-10-18T03:03:26.700Z,0
2016-10-18T03:04:26.633Z,0
2016-10-18T03:05:26.623Z,0
2016-10-18T03:06:26.860Z,0
2016-10-18T03:07:26.514Z,0
2016-10-18T03:08:26.485Z,0
2016-10-18T03:09:26.743Z,0
2016-10-18T03:10:26.450Z,0
2016-10-18T03:11:26.071Z,0
2016-10-18T03:12:26.344Z,0
2016-10-18T03:13:26.609Z,0
2016-10-18T03:14:26.569Z,0
2016-10-18T03:15:26.535Z,0
2016-10-18T03:16:25.895Z,0
2016-10-18T03:17:26.457Z,0
2016-10-18T03:18:26.431Z,0
2016-10-18T03:19:25.820Z,0
2016-10-18T03:20:26.049Z,0
2016-10-18T03:21:25.446Z,0
2016-10-18T03:22:26.284Z,0
2016-10-18T03:23:25.974Z,0
2016-10-18T03:24:26.210Z,0
2016-10-18T03:25:25.905Z,0
2016-10-18T03:26:26.142Z,0
2016-10-18T03:27:26.108Z,0
2016-10-18T03:28:26.075Z,0
2016-10-18T03:29:25.432Z,0
2016-10-18T03:30:25.704Z,0
2016-10-18T03:31:25.358Z,0
2016-10-18T03:32:25.924Z,0
2016-10-18T03:33:25.890Z,0
2016-10-18T03:34:25.250Z,0
2016-10-18T03:35:25.830Z,0
2016-10-18T03:36:25.478Z,0
2016-10-18T03:37:25.441Z,0
2016-10-18T03:38:25.409Z,0
2016-10-18T03:39:25.673Z,0
2016-10-18T03:40:25.337Z,0
2016-10-18T03:41:25.605Z,0
2016-10-18T03:42:25.266Z,0
2016-10-18T03:43:25.225Z,0
2016-10-18T03:44:25.492Z,0
2016-10-18T03:45:25.158Z,0
2016-10-18T03:46:25.419Z,0
2016-10-18T03:47:25.380Z,0
2016-10-18T03:48:25.038Z,0
2016-10-18T03:49:25.011Z,0
2016-10-18T03:50:24.976Z,0
2016-10-18T03:51:24.932Z,0
2016-10-18T03:52:25.203Z,0
2016-10-18T03:53:25.168Z,0
2016-10-18T03:54:24.529Z,0
2016-10-18T03:55:25.095Z,0
2016-10-18T03:56:24.769Z,0
2016-10-18T03:57:25.021Z,0
2016-10-18T03:58:24.382Z,0
2016-10-18T03:59:24.957Z,0
2016-10-18T04:00:24.920Z,0
2016-10-18T04:01:24.572Z,0
2016-10-18T04:02:24.844Z,0
2016-10-18T04:03:24.512Z,0
2016-10-18T04:04:24.162Z,0
2016-10-18T04:05:24.737Z,0
2016-10-18T04:06:24.694Z,0
2016-10-18T04:07:24.668Z,0
2016-10-18T04:08:24.625Z,0
2016-10-18T04:09:24.587Z,0
2016-10-18T04:10:24.557Z,0
2016-10-18T04:11:24.516Z,0
2016-10-18T04:12:24.181Z,0
2016-10-18T04:13:23.857Z,0
2016-10-18T04:14:24.415Z,0
2016-10-18T04:15:23.787Z,0
2016-10-18T04:16:24.341Z,0
2016-10-18T04:17:24.010Z,0
2016-10-18T04:18:23.969Z,0
2016-10-18T04:19:23.932Z,0
2016-10-18T04:20:23.892Z,0
2016-10-18T04:21:23.856Z,0
2016-10-18T04:22:23.830Z,0
2016-10-18T04:23:23.792Z,0
2016-10-18T04:24:23.753Z,0
2016-10-18T04:25:24.024Z,0
2016-10-18T04:26:23.684Z,0
2016-10-18T04:27:23.980Z,0
2016-10-18T04:28:23.609Z,0
2016-10-18T04:29:23.571Z,0
2016-10-18T04:30:23.550Z,0
2016-10-18T04:31:23.501Z,0
2016-10-18T04:32:23.466Z,0
2016-10-18T04:33:23.430Z,0
2016-10-18T04:34:23.700Z,0
2016-10-18T04:35:23.663Z,0
2016-10-18T04:36:23.626Z,0
2016-10-18T04:37:23.633Z,0
2016-10-18T04:38:23.289Z,0
2016-10-18T04:39:23.216Z,0
2016-10-18T04:40:23.484Z,0
2016-10-18T04:41:23.447Z,0
2016-10-18T04:42:23.412Z,0
2016-10-18T04:43:23.372Z,0
2016-10-18T04:44:23.032Z,0
2016-10-18T04:45:22.706Z,0
2016-10-18T04:46:23.268Z,0
2016-10-18T04:47:22.926Z,0
2016-10-18T04:48:23.201Z,0
2016-10-18T04:49:23.165Z,0
2016-10-18T04:50:23.132Z,0
2016-10-18T04:51:23.082Z,0
2016-10-18T04:52:22.756Z,0
2016-10-18T04:53:23.018Z,0
2016-10-18T04:54:22.682Z,0
2016-10-18T04:55:22.651Z,0
2016-10-18T04:56:22.915Z,0
2016-10-18T04:57:22.271Z,0
2016-10-18T04:58:22.241Z,0
2016-10-18T04:59:22.503Z,0
2016-10-18T05:00:22.804Z,0
2016-10-18T05:01:22.736Z,0
2016-10-18T05:02:22.698Z,0
2016-10-18T05:03:22.408Z,0
2016-10-18T05:04:22.627Z,0
2016-10-18T05:05:22.585Z,0
2016-10-18T05:06:22.559Z,0
2016-10-18T05:07:22.220Z,0
2016-10-18T05:08:22.481Z,0
2016-10-18T05:09:21.845Z,0
2016-10-18T05:10:22.423Z,0
2016-10-18T05:11:22.090Z,0
2016-10-18T05:12:22.097Z,0
2016-10-18T05:13:21.394Z,0
2016-10-18T05:14:21.966Z,0
2016-10-18T05:15:21.928Z,0
2016-10-18T05:16:22.197Z,0
2016-10-18T05:17:21.857Z,0
2016-10-18T05:18:22.124Z,0
2016-10-18T05:19:21.188Z,0
2016-10-18T05:20:22.056Z,0
2016-10-18T05:21:22.024Z,0
2016-10-18T05:22:21.383Z,0
2016-10-18T05:23:21.652Z,0
2016-10-18T05:24:21.618Z,0
2016-10-18T05:25:21.883Z,0
2016-10-18T05:26:21.540Z,0
2016-10-18T05:27:21.541Z,0
2016-10-18T05:28:21.466Z,0
2016-10-18T05:29:21.429Z,0
2016-10-18T05:30:21.408Z,0
2016-10-18T05:31:21.698Z,0
2016-10-18T05:32:21.328Z,0
2016-10-18T05:33:21.589Z,0
2016-10-18T05:34:21.255Z,0
2016-10-18T05:35:21.528Z,0
2016-10-18T05:36:21.198Z,0
2016-10-18T05:37:21.449Z,0
2016-10-18T05:38:21.120Z,0
2016-10-18T05:39:21.385Z,0
2016-10-18T05:40:20.751Z,0
2016-10-18T05:41:21.311Z,0
2016-10-18T05:42:21.276Z,0
2016-10-18T05:43:21.242Z,0
2016-10-18T05:44:20.900Z,0
2016-10-18T05:45:21.171Z,0
2016-10-18T05:46:21.133Z,0
2016-10-18T05:47:20.793Z,0
2016-10-18T05:48:20.758Z,0
2016-10-18T05:49:21.022Z,0
2016-10-18T05:50:20.690Z,0
2016-10-18T05:51:20.660Z,0
2016-10-18T05:52:20.319Z,5
2016-10-18T05:53:20.881Z,5
2016-10-18T05:54:20.548Z,5
2016-10-18T05:55:20.503Z,5
2016-10-18T05:56:20.477Z,5
2016-10-18T05:57:20.483Z,5
2016-10-18T05:58:20.706Z,5
2016-10-18T05:59:20.678Z,5
2016-10-18T06:00:20.678Z,5
2016-10-18T06:01:20.053Z,5
2016-10-18T06:02:19.962Z,5
2016-10-18T06:03:20.528Z,5
2016-10-18T06:04:20.192Z,5
2016-10-18T06:05:20.464Z,5
2016-10-18T06:06:19.823Z,5
2016-10-18T06:07:20.392Z,5
2016-10-18T06:08:20.357Z,5
2016-10-18T06:09:20.317Z,5
2016-10-18T06:10:20.281Z,10
2016-10-18T06:11:19.637Z,10
2016-10-18T06:12:19.610Z,10
2016-10-18T06:13:19.569Z,10
2016-10-18T06:14:19.543Z,10
2016-10-18T06:15:20.101Z,15
2016-10-18T06:16:19.777Z,15
2016-10-18T06:17:19.426Z,15
2016-10-18T06:18:19.394Z,15
2016-10-18T06:19:19.973Z,20
2016-10-18T06:20:19.024Z,20
2016-10-18T06:21:19.891Z,20
2016-10-18T06:22:19.858Z,25
2016-10-18T06:23:19.824Z,30
2016-10-18T06:24:19.494Z,30
2016-10-18T06:25:19.449Z,35
2016-10-18T06:26:19.108Z,40
2016-10-18T06:27:19.382Z,40
2016-10-18T06:28:19.045Z,40
2016-10-18T06:29:19.611Z,40
2016-10-18T06:30:19.577Z,40
2016-10-18T06:31:19.569Z,40
2016-10-18T06:32:19.218Z,35
2016-10-18T06:33:19.472Z,35
2016-10-18T06:34:19.435Z,35
2016-10-18T06:35:19.395Z,30
2016-10-18T06:36:19.376Z,35
2016-10-18T06:37:19.328Z,35
2016-10-18T06:38:18.687Z,35
2016-10-18T06:39:19.260Z,45
2016-10-18T06:40:19.227Z,40
2016-10-18T06:41:19.196Z,45
2016-10-18T06:42:19.160Z,45
2016-10-18T06:43:18.820Z,50
2016-10-18T06:44:19.087Z,55
2016-10-18T06:45:18.444Z,60
2016-10-18T06:46:18.709Z,55
2016-10-18T06:47:18.984Z,60
2016-10-18T06:48:18.342Z,60
2016-10-18T06:49:18.611Z,60
2016-10-18T06:50:18.281Z,60
2016-10-18T06:51:18.838Z,50
2016-10-18T06:52:18.501Z,50
2016-10-18T06:53:18.768Z,50
2016-10-18T06:54:18.436Z,45
2016-10-18T06:55:18.394Z,55
2016-10-18T06:56:18.362Z,65
2016-10-18T06:57:18.331Z,80
2016-10-18T06:58:17.994Z,100
2016-10-18T06:59:18.588Z,100
2016-10-18T07:00:18.252Z,135
2016-10-18T07:01:18.186Z,155
2016-10-18T07:02:17.573Z,145
2016-10-18T07:03:18.123Z,155
2016-10-18T07:04:18.085Z,235
2016-10-18T07:05:17.740Z,545
2016-10-18T07:06:17.703Z,575
2016-10-18T07:07:18.279Z,315
2016-10-18T07:08:18.239Z,495
2016-10-18T07:09:18.213Z,540
2016-10-18T07:10:17.874Z,465
2016-10-18T07:11:17.535Z,295
2016-10-18T07:12:17.805Z,290
2016-10-18T07:13:18.077Z,425
2016-10-18T07:14:18.042Z,530
2016-10-18T07:15:17.698Z,900
2016-10-18T07:16:17.064Z,355
2016-10-18T07:17:17.633Z,290
2016-10-18T07:18:17.603Z,275
2016-10-18T07:19:17.872Z,235
2016-10-18T07:20:17.538Z,175
2016-10-18T07:21:17.206Z,170
2016-10-18T07:22:17.781Z,160
2016-10-18T07:23:17.766Z,130
2016-10-18T07:24:17.413Z,125
2016-10-18T07:25:17.676Z,115
2016-10-18T07:26:17.082Z,105
2016-10-18T07:27:17.053Z,100
2016-10-18T07:28:17.596Z,100
2016-10-18T07:29:17.251Z,105
2016-10-18T07:30:16.917Z,115
2016-10-18T07:31:17.190Z,130
2016-10-18T07:32:17.151Z,145
2016-10-18T07:33:17.130Z,150
2016-10-18T07:34:17.087Z,160
2016-10-18T07:35:17.363Z,180
2016-10-18T07:36:17.025Z,195
2016-10-18T07:37:17.290Z,200
2016-10-18T07:38:16.969Z,205
2016-10-18T07:39:16.965Z,200
2016-10-18T07:40:17.209Z,185
2016-10-18T07:41:17.172Z,185
2016-10-18T07:42:16.835Z,170
2016-10-18T07:43:16.805Z,160
2016-10-18T07:44:16.797Z,155
2016-10-18T07:45:16.732Z,145
2016-10-18T07:46:16.700Z,135
2016-10-18T07:47:16.379Z,130
2016-10-18T07:48:16.073Z,120
2016-10-18T07:49:16.608Z,115
2016-10-18T07:50:16.594Z,115
2016-10-18T07:51:16.580Z,120
2016-10-18T07:52:16.207Z,125
2016-10-18T07:53:16.176Z,135
2016-10-18T07:54:16.138Z,140
2016-10-18T07:55:16.717Z,140
2016-10-18T07:56:16.379Z,135
2016-10-18T07:57:16.646Z,140
2016-10-18T07:58:16.617Z,165
2016-10-18T07:59:16.580Z,185
2016-10-18T08:00:16.545Z,195
2016-10-18T08:01:16.518Z,200
2016-10-18T08:02:16.482Z,200
2016-10-18T08:03:15.852Z,185
2016-10-18T08:04:15.814Z,190
2016-10-18T08:05:16.088Z,190
2016-10-18T08:06:16.348Z,200
2016-10-18T08:07:16.015Z,215
2016-10-18T08:08:16.285Z,210
2016-10-18T08:09:16.250Z,205
2016-10-18T08:10:16.218Z,230
2016-10-18T08:11:16.192Z,295
2016-10-18T08:12:15.556Z,330
2016-10-18T08:13:16.126Z,230
2016-10-18T08:14:16.094Z,190
2016-10-18T08:15:16.058Z,180
2016-10-18T08:16:16.025Z,245
2016-10-18T08:17:15.389Z,245
2016-10-18T08:18:15.656Z,220
2016-10-18T08:19:15.627Z,165
2016-10-18T08:20:15.287Z,200
2016-10-18T08:21:15.859Z,155
2016-10-18T08:22:15.830Z,140
2016-10-18T08:23:15.497Z,200
2016-10-18T08:24:15.466Z,215
2016-10-18T08:25:15.128Z,205
2016-10-18T08:26:15.726Z,270
2016-10-18T08:27:15.667Z,535
2016-10-18T08:28:15.637Z,880
2016-10-18T08:29:15.008Z,490
2016-10-18T08:30:15.264Z,435
2016-10-18T08:31:15.237Z,360
2016-10-18T08:32:15.506Z,300
2016-10-18T08:33:15.207Z,325
2016-10-18T08:34:15.439Z,300
2016-10-18T08:35:15.408Z,275
2016-10-18T08:36:14.783Z,230
2016-10-18T08:37:14.753Z,190
2016-10-18T08:38:15.353Z,215
2016-10-18T08:39:15.287Z,315
2016-10-18T08:40:15.256Z,370
2016-10-18T08:41:14.318Z,395
2016-10-18T08:42:14.923Z,605
2016-10-18T08:43:14.562Z,330
2016-10-18T08:44:14.827Z,300
2016-10-18T08:45:14.797Z,290
2016-10-18T08:46:14.766Z,290
2016-10-18T08:47:14.737Z,330
2016-10-18T08:48:14.703Z,380
2016-10-18T08:49:14.712Z,620
2016-10-18T08:50:14.988Z,705
2016-10-18T08:51:14.915Z,880
2016-10-18T08:52:14.586Z,785
2016-10-18T08:53:14.855Z,1440
2016-10-18T08:54:14.519Z,1460
2016-10-18T08:55:14.798Z,1565
2016-10-18T08:56:14.762Z,1505
2016-10-18T08:57:14.135Z,775
2016-10-18T08:58:14.707Z,815
2016-10-18T08:59:14.678Z,660
2016-10-18T09:00:14.646Z,650
2016-10-18T09:01:14.025Z,500
2016-10-18T09:02:14.323Z,460
2016-10-18T09:03:13.971Z,370
2016-10-18T09:04:14.237Z,310
2016-10-18T09:05:13.603Z,245
2016-10-18T09:06:14.482Z,225
2016-10-18T09:07:14.487Z,230
2016-10-18T09:08:14.121Z,225
2016-10-18T09:09:13.791Z,225
2016-10-18T09:10:14.368Z,225
2016-10-18T09:11:14.041Z,225
2016-10-18T09:12:13.744Z,230
2016-10-18T09:13:13.689Z,240
2016-10-18T09:14:14.253Z,270
2016-10-18T09:15:14.225Z,540
2016-10-18T09:16:13.894Z,1080
2016-10-18T09:17:13.864Z,725
2016-10-18T09:18:13.843Z,650
2016-10-18T09:19:13.504Z,700
2016-10-18T09:20:14.120Z,735
2016-10-18T09:21:13.747Z,1090
2016-10-18T09:22:14.027Z,890
2016-10-18T09:23:13.695Z,1220
2016-10-18T09:24:13.359Z,1240
2016-10-18T09:25:13.666Z,1225
2016-10-18T09:26:13.610Z,1125
2016-10-18T09:27:13.581Z,1255
2016-10-18T09:28:13.596Z,1310
2016-10-18T09:29:13.538Z,695
2016-10-18T09:30:13.252Z,1290
2016-10-18T09:31:13.493Z,445
2016-10-18T09:32:13.757Z,335
2016-10-18T09:33:13.739Z,390
2016-10-18T09:34:13.406Z,1175
2016-10-18T09:35:13.084Z,1155
2016-10-18T09:36:13.357Z,1200
2016-10-18T09:37:13.334Z,1225
2016-10-18T09:38:13.618Z,1025
2016-10-18T09:39:13.291Z,445
2016-10-18T09:40:13.565Z,425
2016-10-18T09:41:12.941Z,300
2016-10-18T09:42:13.216Z,255
2016-10-18T09:43:12.899Z,230
2016-10-18T09:44:13.472Z,225
2016-10-18T09:45:13.141Z,260
2016-10-18T09:46:13.426Z,305
2016-10-18T09:47:12.790Z,385
2016-10-18T09:48:13.074Z,435
2016-10-18T09:49:13.358Z,1275
2016-10-18T09:50:13.068Z,1000
2016-10-18T09:51:13.292Z,900
2016-10-18T09:52:13.279Z,625
2016-10-18T09:53:13.258Z,885
2016-10-18T09:54:12.919Z,550
2016-10-18T09:55:12.591Z,405
2016-10-18T09:56:13.171Z,425
2016-10-18T09:57:13.154Z,475
2016-10-18T09:58:13.169Z,440
2016-10-18T09:59:13.100Z,435
2016-10-18T10:00:13.064Z,520
2016-10-18T10:01:13.048Z,300
2016-10-18T10:02:12.115Z,260
2016-10-18T10:03:12.694Z,290
2016-10-18T10:04:12.998Z,980
2016-10-18T10:05:12.648Z,430
2016-10-18T10:06:12.913Z,385
2016-10-18T10:07:12.280Z,345
2016-10-18T10:08:12.563Z,315
2016-10-18T10:09:12.240Z,285
2016-10-18T10:10:12.813Z,260
2016-10-18T10:11:12.785Z,245
2016-10-18T10:12:12.450Z,270
2016-10-18T10:13:12.447Z,1410
2016-10-18T10:14:12.709Z,475
2016-10-18T10:15:12.368Z,1490
2016-10-18T10:16:12.649Z,1530
2016-10-18T10:17:12.625Z,1575
2016-10-18T10:18:12.294Z,1595
2016-10-18T10:19:12.561Z,1590
2016-10-18T10:20:12.537Z,1525
2016-10-18T10:21:12.246Z,1565
2016-10-18T10:22:12.187Z,1580
2016-10-18T10:23:11.854Z,665
2016-10-18T10:24:11.869Z,510
2016-10-18T10:25:12.444Z,445
2016-10-18T10:26:12.096Z,450
2016-10-18T10:27:11.497Z,355
2016-10-18T10:28:11.779Z,330
2016-10-18T10:29:12.017Z,350
2016-10-18T10:30:11.692Z,325
2016-10-18T10:31:11.961Z,915
2016-10-18T10:32:12.242Z,870
2016-10-18T10:33:11.917Z,520
2016-10-18T10:34:12.233Z,370
2016-10-18T10:35:12.165Z,865
2016-10-18T10:36:12.136Z,870
2016-10-18T10:37:12.116Z,885
2016-10-18T10:38:11.791Z,935
2016-10-18T10:39:12.121Z,685
2016-10-18T10:40:12.098Z,590
2016-10-18T10:41:11.780Z,875
2016-10-18T10:42:11.699Z,885
2016-10-18T10:43:11.975Z,590
2016-10-18T10:44:11.652Z,925
2016-10-18T10:45:11.922Z,985
2016-10-18T10:46:11.904Z,1025
2016-10-18T10:47:11.576Z,1040
2016-10-18T10:48:11.251Z,1040
2016-10-18T10:49:11.539Z,1110
2016-10-18T10:50:11.814Z,1375
2016-10-18T10:51:11.489Z,1615
2016-10-18T10:52:11.462Z,1710
2016-10-18T10:53:11.773Z,1865
2016-10-18T10:54:11.731Z,1030
2016-10-18T10:55:11.704Z,2135
2016-10-18T10:56:11.682Z,2235
2016-10-18T10:57:11.655Z,2305
2016-10-18T10:58:11.677Z,2275
2016-10-18T10:59:11.330Z,2195
2016-10-18T11:00:11.625Z,2135
2016-10-18T11:01:11.266Z,1785
2016-10-18T11:02:11.552Z,1015
2016-10-18T11:03:11.563Z,390
2016-10-18T11:04:11.201Z,650
2016-10-18T11:05:11.492Z,600
2016-10-18T11:06:11.159Z,615
2016-10-18T11:07:11.135Z,640
2016-10-18T11:08:11.109Z,590
2016-10-18T11:09:11.105Z,560
2016-10-18T11:10:11.372Z,525
2016-10-18T11:11:11.045Z,545
2016-10-18T11:12:11.322Z,535
2016-10-18T11:13:11.010Z,510
2016-10-18T11:14:11.279Z,510
2016-10-18T11:15:10.951Z,540
2016-10-18T11:16:10.933Z,605
2016-10-18T11:17:10.614Z,1060
2016-10-18T11:18:10.883Z,1765
2016-10-18T11:19:10.864Z,1880
2016-10-18T11:20:10.546Z,1230
2016-10-18T11:21:10.867Z,465
2016-10-18T11:22:11.089Z,260
2016-10-18T11:23:10.760Z,395
2016-10-18T11:24:11.049Z,390
2016-10-18T11:25:10.713Z,375
2016-10-18T11:26:10.689Z,330
2016-10-18T11:27:10.666Z,320
2016-10-18T11:28:10.943Z,320
2016-10-18T11:29:10.612Z,320
2016-10-18T11:30:10.894Z,320
2016-10-18T11:31:10.869Z,320
2016-10-18T11:32:10.840Z,315
2016-10-18T11:33:10.818Z,310
2016-10-18T11:34:10.488Z,300
2016-10-18T11:35:10.479Z,300
2016-10-18T11:36:10.737Z,205
2016-10-18T11:37:10.703Z,210
2016-10-18T11:38:10.384Z,260
2016-10-18T11:39:10.056Z,270
2016-10-18T11:40:10.688Z,255
2016-10-18T11:41:10.649Z,205
2016-10-18T11:42:10.584Z,210
2016-10-18T11:43:10.598Z,225
2016-10-18T11:44:10.232Z,230
2016-10-18T11:45:10.497Z,210
2016-10-18T11:46:10.168Z,210
2016-10-18T11:47:10.441Z,225
2016-10-18T11:48:10.107Z,235
2016-10-18T11:49:09.177Z,245
2016-10-18T11:50:10.389Z,225
2016-10-18T11:51:10.023Z,210
2016-10-18T11:52:10.296Z,200
2016-10-18T11:53:09.965Z,195
2016-10-18T11:54:09.949Z,190
2016-10-18T11:55:09.607Z,185
2016-10-18T11:56:09.885Z,190
2016-10-18T11:57:10.175Z,180
2016-10-18T11:58:10.132Z,165
2016-10-18T11:59:09.854Z,165
2016-10-18T12:00:09.764Z,170
2016-10-18T12:01:09.741Z,180
2016-10-18T12:02:09.710Z,175
2016-10-18T12:03:09.985Z,170
2016-10-18T12:04:09.954Z,175
2016-10-18T12:05:09.023Z,175
2016-10-18T12:06:09.941Z,190
2016-10-18T12:07:09.897Z,200
2016-10-18T12:08:09.831Z,190
2016-10-18T12:09:09.201Z,185
2016-10-18T12:10:09.212Z,200
2016-10-18T12:11:09.744Z,200
2016-10-18T12:12:09.731Z,200
2016-10-18T12:13:09.416Z,205
2016-10-18T12:14:09.052Z,210
2016-10-18T12:15:09.621Z,230
2016-10-18T12:16:09.583Z,230
2016-10-18T12:17:09.294Z,205
2016-10-18T12:18:09.571Z,200
2016-10-18T12:19:09.197Z,210
2016-10-18T12:20:09.479Z,195
2016-10-18T12:21:09.138Z,190
2016-10-18T12:22:09.407Z,185
2016-10-18T12:23:09.371Z,210
2016-10-18T12:24:09.054Z,230
2016-10-18T12:25:08.414Z,225
2016-10-18T12:26:08.981Z,210
2016-10-18T12:27:09.290Z,205
2016-10-18T12:28:09.223Z,220
2016-10-18T12:29:09.197Z,235
2016-10-18T12:30:08.851Z,235
2016-10-18T12:31:09.129Z,215
2016-10-18T12:32:08.805Z,245
2016-10-18T12:33:08.772Z,300
2016-10-18T12:34:09.038Z,310
2016-10-18T12:35:09.008Z,265
2016-10-18T12:36:09.013Z,245
2016-10-18T12:37:08.642Z,235
2016-10-18T12:38:08.921Z,225
2016-10-18T12:39:08.277Z,230
2016-10-18T12:40:08.556Z,225
2016-10-18T12:41:08.519Z,210
2016-10-18T12:42:08.496Z,195
2016-10-18T12:43:08.507Z,195
2016-10-18T12:44:08.444Z,200
2016-10-18T12:45:08.096Z,205
2016-10-18T12:46:08.671Z,210
2016-10-18T12:47:08.343Z,220
2016-10-18T12:48:08.311Z,210
2016-10-18T12:49:08.590Z,210
2016-10-18T12:50:08.238Z,200
2016-10-18T12:51:08.514Z,210
2016-10-18T12:52:08.189Z,195
2016-10-18T12:53:08.450Z,190
2016-10-18T12:54:08.461Z,195
2016-10-18T12:55:08.397Z,185
2016-10-18T12:56:08.362Z,185
2016-10-18T12:57:08.335Z,185
2016-10-18T12:58:08.302Z,180
2016-10-18T12:59:08.276Z,180
2016-10-18T13:00:08.291Z,180
2016-10-18T13:01:07.913Z,175
2016-10-18T13:02:08.185Z,175
2016-10-18T13:03:07.574Z,170
2016-10-18T13:04:08.105Z,175
2016-10-18T13:05:07.478Z,175
2016-10-18T13:06:08.096Z,185
2016-10-18T13:07:07.416Z,200
2016-10-18T13:08:07.979Z,205
2016-10-18T13:09:07.950Z,205
2016-10-18T13:10:07.630Z,205
2016-10-18T13:11:07.322Z,195
2016-10-18T13:12:07.859Z,190
2016-10-18T13:13:07.867Z,180
2016-10-18T13:14:07.803Z,165
2016-10-18T13:15:07.764Z,170
2016-10-18T13:16:07.746Z,180
2016-10-18T13:17:07.709Z,180
2016-10-18T13:18:07.074Z,180
2016-10-18T13:19:07.337Z,185
2016-10-18T13:20:07.032Z,180
2016-10-18T13:21:07.410Z,170
2016-10-18T13:22:07.244Z,175
2016-10-18T13:23:07.325Z,175
2016-10-18T13:24:06.921Z,180
2016-10-18T13:25:06.852Z,190
2016-10-18T13:26:07.417Z,200
2016-10-18T13:27:07.085Z,200
2016-10-18T13:28:07.062Z,190
2016-10-18T13:29:06.722Z,185
2016-10-18T13:30:07.328Z,175
2016-10-18T13:31:07.263Z,175
2016-10-18T13:32:07.232Z,160
2016-10-18T13:33:06.900Z,145
2016-10-18T13:34:06.865Z,125
2016-10-18T13:35:06.841Z,115
2016-10-18T13:36:06.857Z,115
2016-10-18T13:37:06.474Z,105
2016-10-18T13:38:07.043Z,95
2016-10-18T13:39:06.411Z,90
2016-10-18T13:40:06.985Z,90
2016-10-18T13:41:06.950Z,90
2016-10-18T13:42:07.012Z,95
2016-10-18T13:43:06.888Z,100
2016-10-18T13:44:06.852Z,110
2016-10-18T13:45:06.523Z,105
2016-10-18T13:46:06.496Z,115
2016-10-18T13:47:06.754Z,145
2016-10-18T13:48:06.719Z,175
2016-10-18T13:49:06.706Z,195
2016-10-18T13:50:06.065Z,215
2016-10-18T13:51:06.628Z,220
2016-10-18T13:52:05.990Z,215
2016-10-18T13:53:06.558Z,230
2016-10-18T13:54:06.271Z,230
2016-10-18T13:55:06.499Z,210
2016-10-18T13:56:06.169Z,190
2016-10-18T13:57:05.533Z,175
2016-10-18T13:58:06.406Z,160
2016-10-18T13:59:06.391Z,165
2016-10-18T14:00:06.045Z,160
2016-10-18T14:01:05.710Z,160
2016-10-18T14:02:06.281Z,150
2016-10-18T14:03:06.257Z,145
2016-10-18T14:04:06.226Z,145
2016-10-18T14:05:06.182Z,145
2016-10-18T14:06:06.156Z,140
2016-10-18T14:07:05.823Z,140
2016-10-18T14:08:06.097Z,145
2016-10-18T14:09:05.808Z,145
2016-10-18T14:10:05.728Z,150
2016-10-18T14:11:06.039Z,145